sensor_id;sensor_type;location;lat;lon;timestamp;pressure;altitude;pressure_sealevel;temperature;humidity
21449;BME280;10885;52.830;13.788;2023-11-21T06:17:30;100830.97;;;5.25;85.51
21449;BME280;10885;52.830;13.788;2023-11-21T06:22:33;100842.75;;;5.14;85.06
21449;BME280;10885;52.830;13.788;2023-11-21T06:27:44;100851.16;;;5.24;85.03
21449;BME280;10885;52.830;13.788;2023-11-21T06:32:47;100860.84;;;5.28;84.87
21449;BME280;10885;52.830;13.788;2023-11-21T06:37:50;100875.38;;;5.20;85.55
21449;BME280;10885;52.830;13.788;2023-11-21T06:42:54;100873.38;;;5.26;85.66
21449;BME280;10885;52.830;13.788;2023-11-21T06:47:56;100883.00;;;5.20;86.43
21449;BME280;10885;52.830;13.788;2023-11-21T06:52:59;100885.53;;;5.20;87.75
21449;BME280;10885;52.830;13.788;2023-11-21T06:58:02;100888.28;;;5.42;88.99
21449;BME280;10885;52.830;13.788;2023-11-21T07:03:04;100893.13;;;5.49;86.29
21449;BME280;10885;52.830;13.788;2023-11-21T07:08:07;100890.03;;;5.33;86.83
21449;BME280;10885;52.830;13.788;2023-11-21T07:13:10;100908.47;;;5.22;87.32
21449;BME280;10885;52.830;13.788;2023-11-21T07:18:15;100901.94;;;5.05;87.48
21449;BME280;10885;52.830;13.788;2023-11-21T07:23:17;100910.38;;;4.95;88.44
21449;BME280;10885;52.830;13.788;2023-11-21T07:28:20;100900.38;;;4.96;88.39
21449;BME280;10885;52.830;13.788;2023-11-21T07:33:23;100918.13;;;4.96;88.12
21449;BME280;10885;52.830;13.788;2023-11-21T07:38:26;100919.50;;;4.93;88.79
21449;BME280;10885;52.830;13.788;2023-11-21T07:43:30;100933.53;;;4.89;88.99
21449;BME280;10885;52.830;13.788;2023-11-21T07:48:41;100927.59;;;4.89;88.77
21449;BME280;10885;52.830;13.788;2023-11-21T07:53:44;100939.78;;;4.93;88.92
21449;BME280;10885;52.830;13.788;2023-11-21T07:58:47;100944.53;;;4.98;88.69
21449;BME280;10885;52.830;13.788;2023-11-21T19:23:54;101864.75;;;2.44;75.32
21449;BME280;10885;52.830;13.788;2023-11-21T19:28:58;101868.72;;;2.42;74.25
21449;BME280;10885;52.830;13.788;2023-11-21T19:34:01;101864.56;;;2.43;74.33
21449;BME280;10885;52.830;13.788;2023-11-21T19:39:04;101866.38;;;2.44;74.43
21449;BME280;10885;52.830;13.788;2023-11-21T19:44:06;101872.91;;;2.42;74.32
21449;BME280;10885;52.830;13.788;2023-11-21T19:49:09;101884.41;;;2.47;73.72
21449;BME280;10885;52.830;13.788;2023-11-21T19:54:13;101890.03;;;2.37;74.02
21449;BME280;10885;52.830;13.788;2023-11-21T19:59:15;101894.44;;;2.24;74.73
21449;BME280;10885;52.830;13.788;2023-11-21T20:04:20;101888.09;;;2.20;74.82
21449;BME280;10885;52.830;13.788;2023-11-21T20:09:23;101892.28;;;2.19;75.07
21449;BME280;10885;52.830;13.788;2023-11-21T20:14:25;101899.47;;;2.24;75.11
21449;BME280;10885;52.830;13.788;2023-11-21T20:19:31;101913.88;;;2.25;75.38
21449;BME280;10885;52.830;13.788;2023-11-21T20:24:33;101913.94;;;2.17;75.80
21449;BME280;10885;52.830;13.788;2023-11-21T20:29:38;101932.69;;;2.19;74.62
21449;BME280;10885;52.830;13.788;2023-11-21T20:34:42;101937.00;;;2.21;74.42
21449;BME280;10885;52.830;13.788;2023-11-21T20:39:45;101939.88;;;2.16;74.49
21449;BME280;10885;52.830;13.788;2023-11-21T20:44:50;101955.78;;;2.15;74.99
21449;BME280;10885;52.830;13.788;2023-11-21T20:49:53;101961.91;;;2.10;74.23
21449;BME280;10885;52.830;13.788;2023-11-21T20:55:01;101961.91;;;2.03;74.61
21449;BME280;10885;52.830;13.788;2023-11-21T21:00:05;101970.56;;;1.98;74.22
21449;BME280;10885;52.830;13.788;2023-11-21T21:05:12;101984.09;;;1.98;74.71
21449;BME280;10885;52.830;13.788;2023-11-21T21:10:17;101984.81;;;2.05;73.92
21449;BME280;10885;52.830;13.788;2023-11-21T21:15:20;101987.69;;;2.01;74.05
21449;BME280;10885;52.830;13.788;2023-11-21T21:20:22;101991.50;;;2.04;73.46
21449;BME280;10885;52.830;13.788;2023-11-21T21:25:25;102008.44;;;1.91;74.12
21449;BME280;10885;52.830;13.788;2023-11-21T21:30:28;102014.19;;;1.83;74.72
21449;BME280;10885;52.830;13.788;2023-11-21T21:35:32;102028.25;;;1.73;74.99
21449;BME280;10885;52.830;13.788;2023-11-21T21:40:34;102024.63;;;1.64;75.47
21449;BME280;10885;52.830;13.788;2023-11-21T21:45:37;102033.44;;;1.61;75.19
21449;BME280;10885;52.830;13.788;2023-11-21T21:50:40;102033.81;;;1.56;75.61
21449;BME280;10885;52.830;13.788;2023-11-21T21:55:43;102037.75;;;1.62;75.55
21449;BME280;10885;52.830;13.788;2023-11-21T22:00:45;102048.06;;;1.63;75.42
21449;BME280;10885;52.830;13.788;2023-11-21T22:05:48;102058.84;;;1.55;75.53
21449;BME280;10885;52.830;13.788;2023-11-21T22:10:51;102052.00;;;1.61;75.62
21449;BME280;10885;52.830;13.788;2023-11-21T22:15:54;102059.59;;;1.61;75.43
21449;BME280;10885;52.830;13.788;2023-11-21T22:20:56;102057.72;;;1.46;75.51
21449;BME280;10885;52.830;13.788;2023-11-21T22:25:59;102066.28;;;1.19;76.42
21449;BME280;10885;52.830;13.788;2023-11-21T22:31:02;102055.25;;;1.04;79.70
21449;BME280;10885;52.830;13.788;2023-11-21T22:36:05;102073.47;;;0.54;80.23
21449;BME280;10885;52.830;13.788;2023-11-21T22:41:08;102064.97;;;0.27;80.53
